Terminal Aerodrome Forecast
Issued by NWS

Home | Current Version | Previous Version | Text Only | Print | Product List | Glossary On
Versions: 1 2 3 4 5 6 7 8 9 10 11 12 13 14 15 16 17 18 19 20 21 22 23 24 25
000
FTUS41 KCTP 120600 RRB
TAFJST
TAF
KJST 120600Z 1206/1306 17008KT P6SM SCT040 BKN060
     FM121000 22010KT P6SM OVC025
     FM121200 25013G21KT 3SM -SN OVC015
     FM121400 27016G26KT 3/4SM -SN OVC005
     FM122000 29020G32KT 2SM -SN OVC015=

USA.gov is the U.S. government's official web portal to all federal, state and local government web resources and services.